sensor_id;sensor_type;location;lat;lon;timestamp;temperature;humidity
43607;DHT22;29197;44.788;10.366;2022-11-15T00:02:08;9.90;99.90
43607;DHT22;29197;44.788;10.366;2022-11-15T00:04:57;9.90;99.90
43607;DHT22;29197;44.788;10.366;2022-11-15T00:07:47;9.80;99.90
43607;DHT22;29197;44.788;10.366;2022-11-15T00:10:54;9.80;99.90
43607;DHT22;29197;44.788;10.366;2022-11-15T00:13:44;9.90;99.90
43607;DHT22;29197;44.788;10.366;2022-11-15T00:16:33;10.00;99.90
43607;DHT22;29197;44.788;10.366;2022-11-15T00:19:22;10.20;99.90
43607;DHT22;29197;44.788;10.366;2022-11-15T00:22:11;10.30;99.90
43607;DHT22;29197;44.788;10.366;2022-11-15T00:25:00;10.40;99.90
43607;DHT22;29197;44.788;10.366;2022-11-15T00:27:55;10.50;99.90
43607;DHT22;29197;44.788;10.366;2022-11-15T00:30:44;10.60;99.90
43607;DHT22;29197;44.788;10.366;2022-11-15T00:33:34;10.70;99.90
43607;DHT22;29197;44.788;10.366;2022-11-15T00:36:24;10.80;99.90
43607;DHT22;29197;44.788;10.366;2022-11-15T00:39:14;10.80;99.90
43607;DHT22;29197;44.788;10.366;2022-11-15T00:42:04;10.90;99.90
43607;DHT22;29197;44.788;10.366;2022-11-15T00:44:54;11.00;99.90
43607;DHT22;29197;44.788;10.366;2022-11-15T00:47:44;11.00;99.90
43607;DHT22;29197;44.788;10.366;2022-11-15T00:50:33;10.90;99.90
43607;DHT22;29197;44.788;10.366;2022-11-15T00:53:23;10.50;99.90
43607;DHT22;29197;44.788;10.366;2022-11-15T00:56:12;10.60;99.90
43607;DHT22;29197;44.788;10.366;2022-11-15T00:59:00;10.60;99.90
43607;DHT22;29197;44.788;10.366;2022-11-15T01:01:51;10.70;99.90
43607;DHT22;29197;44.788;10.366;2022-11-15T01:04:40;10.80;99.90
43607;DHT22;29197;44.788;10.366;2022-11-15T01:07:30;10.60;99.90
43607;DHT22;29197;44.788;10.366;2022-11-15T01:10:19;10.30;99.90
43607;DHT22;29197;44.788;10.366;2022-11-15T01:13:08;10.30;99.90
43607;DHT22;29197;44.788;10.366;2022-11-15T01:15:58;10.00;99.90
43607;DHT22;29197;44.788;10.366;2022-11-15T01:18:50;9.80;99.90
43607;DHT22;29197;44.788;10.366;2022-11-15T01:21:39;9.80;99.90
43607;DHT22;29197;44.788;10.366;2022-11-15T01:24:29;9.90;99.90
43607;DHT22;29197;44.788;10.366;2022-11-15T01:27:18;9.90;99.90
43607;DHT22;29197;44.788;10.366;2022-11-15T01:30:08;9.60;99.90
43607;DHT22;29197;44.788;10.366;2022-11-15T01:32:57;9.40;99.90
43607;DHT22;29197;44.788;10.366;2022-11-15T01:35:49;9.20;99.90
43607;DHT22;29197;44.788;10.366;2022-11-15T01:38:37;9.40;99.90
43607;DHT22;29197;44.788;10.366;2022-11-15T01:41:28;9.40;99.90
43607;DHT22;29197;44.788;10.366;2022-11-15T01:44:41;9.40;99.90
43607;DHT22;29197;44.788;10.366;2022-11-15T01:47:33;9.50;99.90
43607;DHT22;29197;44.788;10.366;2022-11-15T01:50:26;9.60;99.90
43607;DHT22;29197;44.788;10.366;2022-11-15T01:53:19;9.60;99.90
43607;DHT22;29197;44.788;10.366;2022-11-15T07:52:57;11.30;99.90
43607;DHT22;29197;44.788;10.366;2022-11-15T07:55:45;11.40;99.90
43607;DHT22;29197;44.788;10.366;2022-11-15T07:58:34;11.40;99.90
43607;DHT22;29197;44.788;10.366;2022-11-15T08:01:23;11.40;99.90
43607;DHT22;29197;44.788;10.366;2022-11-15T08:04:12;11.40;99.90
43607;DHT22;29197;44.788;10.366;2022-11-15T08:07:01;11.40;99.90
43607;DHT22;29197;44.788;10.366;2022-11-15T08:09:51;11.50;99.90
43607;DHT22;29197;44.788;10.366;2022-11-15T08:12:42;11.40;99.90
43607;DHT22;29197;44.788;10.366;2022-11-15T08:15:32;11.50;99.90
43607;DHT22;29197;44.788;10.366;2022-11-15T08:18:21;11.50;99.90
43607;DHT22;29197;44.788;10.366;2022-11-15T08:21:13;11.40;99.90
43607;DHT22;29197;44.788;10.366;2022-11-15T08:24:05;11.00;99.90
43607;DHT22;29197;44.788;10.366;2022-11-15T08:26:56;11.00;99.90
43607;DHT22;29197;44.788;10.366;2022-11-15T08:29:47;11.00;99.90
43607;DHT22;29197;44.788;10.366;2022-11-15T08:32:37;11.10;99.90
43607;DHT22;29197;44.788;10.366;2022-11-15T08:35:27;11.30;99.90
43607;DHT22;29197;44.788;10.366;2022-11-15T08:38:17;11.40;99.90
43607;DHT22;29197;44.788;10.366;2022-11-15T08:41:06;11.60;99.90
43607;DHT22;29197;44.788;10.366;2022-11-15T08:43:57;11.60;99.90
43607;DHT22;29197;44.788;10.366;2022-11-15T08:46:46;11.70;99.90
43607;DHT22;29197;44.788;10.366;2022-11-15T08:49:35;11.70;99.90
43607;DHT22;29197;44.788;10.366;2022-11-15T08:52:25;11.80;99.90
43607;DHT22;29197;44.788;10.366;2022-11-15T08:55:14;11.80;99.90
43607;DHT22;29197;44.788;10.366;2022-11-15T08:58:04;11.80;99.90
43607;DHT22;29197;44.788;10.366;2022-11-15T09:00:54;11.80;99.90
43607;DHT22;29197;44.788;10.366;2022-11-15T09:03:43;11.80;99.90
43607;DHT22;29197;44.788;10.366;2022-11-15T09:06:32;11.90;99.90
43607;DHT22;29197;44.788;10.366;2022-11-15T09:09:25;11.80;99.90
43607;DHT22;29197;44.788;10.366;2022-11-15T09:12:14;11.60;99.90
43607;DHT22;29197;44.788;10.366;2022-11-15T09:15:05;11.60;99.90
43607;DHT22;29197;44.788;10.366;2022-11-15T09:17:57;11.70;99.90
43607;DHT22;29197;44.788;10.366;2022-11-15T09:20:47;11.70;99.90
43607;DHT22;29197;44.788;10.366;2022-11-15T09:23:36;11.70;99.90
43607;DHT22;29197;44.788;10.366;2022-11-15T09:26:26;11.70;99.90
43607;DHT22;29197;44.788;10.366;2022-11-15T09:29:15;11.70;99.90
43607;DHT22;29197;44.788;10.366;2022-11-15T09:32:04;11.80;99.90
43607;DHT22;29197;44.788;10.366;2022-11-15T09:34:54;12.10;99.90
43607;DHT22;29197;44.788;10.366;2022-11-15T09:37:44;12.00;99.90
43607;DHT22;29197;44.788;10.366;2022-11-15T09:40:38;12.00;99.90
43607;DHT22;29197;44.788;10.366;2022-11-15T09:43:32;12.10;99.90
43607;DHT22;29197;44.788;10.366;2022-11-15T09:46:33;12.10;99.90
43607;DHT22;29197;44.788;10.366;2022-11-15T09:49:26;12.20;99.90
43607;DHT22;29197;44.788;10.366;2022-11-15T09:52:19;12.20;99.90
43607;DHT22;29197;44.788;10.366;2022-11-15T09:55:10;12.20;99.90
43607;DHT22;29197;44.788;10.366;2022-11-15T09:58:19;12.30;99.90
43607;DHT22;29197;44.788;10.366;2022-11-15T10:01:16;12.30;99.90
43607;DHT22;29197;44.788;10.366;2022-11-15T10:04:06;12.30;99.90
43607;DHT22;29197;44.788;10.366;2022-11-15T10:07:04;12.40;99.90
43607;DHT22;29197;44.788;10.366;2022-11-15T10:10:04;12.40;99.90
43607;DHT22;29197;44.788;10.366;2022-11-15T10:12:58;12.40;99.90
43607;DHT22;29197;44.788;10.366;2022-11-15T10:15:47;12.40;99.90
43607;DHT22;29197;44.788;10.366;2022-11-15T10:18:45;12.40;99.90
43607;DHT22;29197;44.788;10.366;2022-11-15T10:21:44;12.40;99.90
43607;DHT22;29197;44.788;10.366;2022-11-15T10:24:41;12.50;99.90
43607;DHT22;29197;44.788;10.366;2022-11-15T10:27:32;12.50;99.90
43607;DHT22;29197;44.788;10.366;2022-11-15T10:30:21;12.50;99.90
43607;DHT22;29197;44.788;10.366;2022-11-15T10:33:22;12.50;99.90
43607;DHT22;29197;44.788;10.366;2022-11-15T10:36:18;12.50;99.90
43607;DHT22;29197;44.788;10.366;2022-11-15T10:39:11;12.50;99.90
43607;DHT22;29197;44.788;10.366;2022-11-15T10:42:16;12.50;99.90
43607;DHT22;29197;44.788;10.366;2022-11-15T10:45:23;12.60;99.90
43607;DHT22;29197;44.788;10.366;2022-11-15T10:48:23;12.60;99.90
43607;DHT22;29197;44.788;10.366;2022-11-15T10:51:20;12.60;99.90
43607;DHT22;29197;44.788;10.366;2022-11-15T10:54:22;12.60;99.90
43607;DHT22;29197;44.788;10.366;2022-11-15T10:57:14;12.70;99.90
43607;DHT22;29197;44.788;10.366;2022-11-15T11:00:12;12.70;99.90
43607;DHT22;29197;44.788;10.366;2022-11-15T11:03:32;12.70;99.90
43607;DHT22;29197;44.788;10.366;2022-11-15T11:06:23;12.70;99.90
43607;DHT22;29197;44.788;10.366;2022-11-15T11:09:27;12.70;99.90
43607;DHT22;29197;44.788;10.366;2022-11-15T11:12:27;12.60;99.90
43607;DHT22;29197;44.788;10.366;2022-11-15T11:15:17;12.60;99.90
43607;DHT22;29197;44.788;10.366;2022-11-15T11:18:11;12.70;99.90
43607;DHT22;29197;44.788;10.366;2022-11-15T11:21:09;12.70;99.90
43607;DHT22;29197;44.788;10.366;2022-11-15T11:24:08;12.70;99.90
43607;DHT22;29197;44.788;10.366;2022-11-15T11:27:08;12.70;99.90
43607;DHT22;29197;44.788;10.366;2022-11-15T11:30:06;12.70;99.90
43607;DHT22;29197;44.788;10.366;2022-11-15T11:33:12;12.70;99.90
43607;DHT22;29197;44.788;10.366;2022-11-15T11:36:17;12.70;99.90
43607;DHT22;29197;44.788;10.366;2022-11-15T11:39:20;12.70;99.90
43607;DHT22;29197;44.788;10.366;2022-11-15T11:42:17;12.70;99.90
43607;DHT22;29197;44.788;10.366;2022-11-15T11:45:15;12.70;99.90
43607;DHT22;29197;44.788;10.366;2022-11-15T11:48:12;12.70;99.90
43607;DHT22;29197;44.788;10.366;2022-11-15T11:51:05;12.70;99.90
43607;DHT22;29197;44.788;10.366;2022-11-15T11:53:58;12.60;99.90
43607;DHT22;29197;44.788;10.366;2022-11-15T11:56:50;12.70;99.90
43607;DHT22;29197;44.788;10.366;2022-11-15T11:59:45;12.70;99.90
43607;DHT22;29197;44.788;10.366;2022-11-15T12:02:39;12.70;99.90
43607;DHT22;29197;44.788;10.366;2022-11-15T12:05:35;12.70;99.90
43607;DHT22;29197;44.788;10.366;2022-11-15T12:08:32;12.50;99.90
43607;DHT22;29197;44.788;10.366;2022-11-15T12:11:29;12.60;99.90
43607;DHT22;29197;44.788;10.366;2022-11-15T12:14:27;12.60;99.90
43607;DHT22;29197;44.788;10.366;2022-11-15T12:17:23;12.60;99.90
43607;DHT22;29197;44.788;10.366;2022-11-15T12:20:17;12.70;99.90
43607;DHT22;29197;44.788;10.366;2022-11-15T12:23:12;12.70;99.90
43607;DHT22;29197;44.788;10.366;2022-11-15T12:26:05;12.60;99.90
43607;DHT22;29197;44.788;10.366;2022-11-15T12:29:00;12.70;99.90
43607;DHT22;29197;44.788;10.366;2022-11-15T12:31:56;12.70;99.90
43607;DHT22;29197;44.788;10.366;2022-11-15T12:34:48;12.70;99.90
43607;DHT22;29197;44.788;10.366;2022-11-15T12:37:49;12.70;99.90
43607;DHT22;29197;44.788;10.366;2022-11-15T12:41:11;12.70;99.90
43607;DHT22;29197;44.788;10.366;2022-11-15T12:43:50;12.70;99.90
43607;DHT22;29197;44.788;10.366;2022-11-15T12:46:59;12.80;99.90
43607;DHT22;29197;44.788;10.366;2022-11-15T12:49:49;12.80;99.90
43607;DHT22;29197;44.788;10.366;2022-11-15T12:56:21;12.80;99.90
43607;DHT22;29197;44.788;10.366;2022-11-15T12:59:47;12.80;99.90
43607;DHT22;29197;44.788;10.366;2022-11-15T13:02:38;12.80;99.90
43607;DHT22;29197;44.788;10.366;2022-11-15T13:06:09;12.80;99.90
43607;DHT22;29197;44.788;10.366;2022-11-15T13:09:53;12.70;99.90
43607;DHT22;29197;44.788;10.366;2022-11-15T13:12:55;12.80;99.90
43607;DHT22;29197;44.788;10.366;2022-11-15T13:15:56;12.70;99.90
43607;DHT22;29197;44.788;10.366;2022-11-15T13:18:53;12.70;99.90
43607;DHT22;29197;44.788;10.366;2022-11-15T13:21:48;12.80;99.90
43607;DHT22;29197;44.788;10.366;2022-11-15T13:24:55;12.80;99.90
43607;DHT22;29197;44.788;10.366;2022-11-15T13:27:44;12.80;99.90
43607;DHT22;29197;44.788;10.366;2022-11-15T13:30:35;12.80;99.90
43607;DHT22;29197;44.788;10.366;2022-11-15T13:33:30;12.70;99.90
43607;DHT22;29197;44.788;10.366;2022-11-15T13:36:25;12.80;99.90
43607;DHT22;29197;44.788;10.366;2022-11-15T13:39:26;12.80;99.90
43607;DHT22;29197;44.788;10.366;2022-11-15T13:42:16;12.80;99.90
43607;DHT22;29197;44.788;10.366;2022-11-15T13:45:11;12.80;99.90
43607;DHT22;29197;44.788;10.366;2022-11-15T13:48:03;12.80;99.90
43607;DHT22;29197;44.788;10.366;2022-11-15T13:50:56;12.70;99.90
43607;DHT22;29197;44.788;10.366;2022-11-15T13:53:53;12.70;99.90
43607;DHT22;29197;44.788;10.366;2022-11-15T13:56:46;12.80;99.90
43607;DHT22;29197;44.788;10.366;2022-11-15T13:59:44;12.70;99.90
43607;DHT22;29197;44.788;10.366;2022-11-15T14:02:35;12.70;99.90
43607;DHT22;29197;44.788;10.366;2022-11-15T14:05:24;12.70;99.90
43607;DHT22;29197;44.788;10.366;2022-11-15T14:08:23;12.70;99.90
43607;DHT22;29197;44.788;10.366;2022-11-15T14:11:15;12.70;99.90
43607;DHT22;29197;44.788;10.366;2022-11-15T14:14:13;12.70;99.90
43607;DHT22;29197;44.788;10.366;2022-11-15T14:17:03;12.70;99.90
43607;DHT22;29197;44.788;10.366;2022-11-15T14:19:52;12.50;99.90
43607;DHT22;29197;44.788;10.366;2022-11-15T14:22:51;12.60;99.90
43607;DHT22;29197;44.788;10.366;2022-11-15T14:25:52;12.60;99.90
43607;DHT22;29197;44.788;10.366;2022-11-15T14:28:42;12.60;99.90
43607;DHT22;29197;44.788;10.366;2022-11-15T14:31:31;12.60;99.90
43607;DHT22;29197;44.788;10.366;2022-11-15T14:34:20;12.50;99.90
43607;DHT22;29197;44.788;10.366;2022-11-15T14:37:19;12.50;99.90
43607;DHT22;29197;44.788;10.366;2022-11-15T14:40:12;12.50;99.90
43607;DHT22;29197;44.788;10.366;2022-11-15T14:43:03;12.50;99.90
43607;DHT22;29197;44.788;10.366;2022-11-15T14:45:52;12.50;99.90
43607;DHT22;29197;44.788;10.366;2022-11-15T14:48:41;12.40;99.90
43607;DHT22;29197;44.788;10.366;2022-11-15T14:51:31;12.40;99.90
43607;DHT22;29197;44.788;10.366;2022-11-15T14:54:20;12.40;99.90
43607;DHT22;29197;44.788;10.366;2022-11-15T14:57:10;12.40;99.90
43607;DHT22;29197;44.788;10.366;2022-11-15T15:00:00;12.40;99.90
43607;DHT22;29197;44.788;10.366;2022-11-15T15:02:52;12.40;99.90
43607;DHT22;29197;44.788;10.366;2022-11-15T15:05:43;12.40;99.90
43607;DHT22;29197;44.788;10.366;2022-11-15T15:08:33;12.40;99.90
43607;DHT22;29197;44.788;10.366;2022-11-15T15:11:23;12.50;99.90
43607;DHT22;29197;44.788;10.366;2022-11-15T15:14:14;12.50;99.90
43607;DHT22;29197;44.788;10.366;2022-11-15T15:17:05;12.50;99.90
43607;DHT22;29197;44.788;10.366;2022-11-15T15:19:55;12.50;99.90
43607;DHT22;29197;44.788;10.366;2022-11-15T15:22:44;12.50;99.90
43607;DHT22;29197;44.788;10.366;2022-11-15T15:25:34;12.50;99.90
43607;DHT22;29197;44.788;10.366;2022-11-15T15:28:23;12.50;99.90
43607;DHT22;29197;44.788;10.366;2022-11-15T15:31:20;12.50;99.90
43607;DHT22;29197;44.788;10.366;2022-11-15T15:34:10;12.40;99.90
43607;DHT22;29197;44.788;10.366;2022-11-15T15:37:22;12.50;99.90
43607;DHT22;29197;44.788;10.366;2022-11-15T15:40:15;12.50;99.90
43607;DHT22;29197;44.788;10.366;2022-11-15T15:43:05;12.40;99.90
43607;DHT22;29197;44.788;10.366;2022-11-15T15:45:56;12.40;99.90
43607;DHT22;29197;44.788;10.366;2022-11-15T15:48:46;12.50;99.90
43607;DHT22;29197;44.788;10.366;2022-11-15T15:51:37;12.40;99.90
43607;DHT22;29197;44.788;10.366;2022-11-15T15:54:26;12.50;99.90
43607;DHT22;29197;44.788;10.366;2022-11-15T15:57:15;12.50;99.90
43607;DHT22;29197;44.788;10.366;2022-11-15T16:00:06;12.40;99.90
43607;DHT22;29197;44.788;10.366;2022-11-15T16:02:55;12.40;99.90
43607;DHT22;29197;44.788;10.366;2022-11-15T16:05:44;12.40;99.90
43607;DHT22;29197;44.788;10.366;2022-11-15T16:08:35;12.40;99.90
43607;DHT22;29197;44.788;10.366;2022-11-15T16:11:46;12.40;99.90
43607;DHT22;29197;44.788;10.366;2022-11-15T16:14:35;12.40;99.90
43607;DHT22;29197;44.788;10.366;2022-11-15T16:17:26;12.40;99.90
43607;DHT22;29197;44.788;10.366;2022-11-15T16:20:29;12.40;99.90
43607;DHT22;29197;44.788;10.366;2022-11-15T16:23:19;12.40;99.90
43607;DHT22;29197;44.788;10.366;2022-11-15T16:26:19;12.40;99.90
43607;DHT22;29197;44.788;10.366;2022-11-15T16:29:09;12.40;99.90
43607;DHT22;29197;44.788;10.366;2022-11-15T16:31:59;12.40;99.90
43607;DHT22;29197;44.788;10.366;2022-11-15T16:34:48;12.40;99.90
43607;DHT22;29197;44.788;10.366;2022-11-15T16:37:37;12.40;99.90
43607;DHT22;29197;44.788;10.366;2022-11-15T16:40:29;12.40;99.90
43607;DHT22;29197;44.788;10.366;2022-11-15T16:43:20;12.40;99.90
43607;DHT22;29197;44.788;10.366;2022-11-15T16:46:14;12.40;99.90
43607;DHT22;29197;44.788;10.366;2022-11-15T16:49:04;12.40;99.90
43607;DHT22;29197;44.788;10.366;2022-11-15T16:51:56;12.40;99.90
43607;DHT22;29197;44.788;10.366;2022-11-15T16:54:45;12.30;99.90
43607;DHT22;29197;44.788;10.366;2022-11-15T16:57:35;12.40;99.90
43607;DHT22;29197;44.788;10.366;2022-11-15T17:00:25;12.40;99.90
43607;DHT22;29197;44.788;10.366;2022-11-15T17:03:15;12.40;99.90
43607;DHT22;29197;44.788;10.366;2022-11-15T17:06:04;12.40;99.90
43607;DHT22;29197;44.788;10.366;2022-11-15T17:08:54;12.40;99.90
43607;DHT22;29197;44.788;10.366;2022-11-15T17:11:45;12.40;99.90
43607;DHT22;29197;44.788;10.366;2022-11-15T17:14:35;12.40;99.90
43607;DHT22;29197;44.788;10.366;2022-11-15T17:17:27;12.40;99.90
43607;DHT22;29197;44.788;10.366;2022-11-15T17:20:17;12.40;99.90
43607;DHT22;29197;44.788;10.366;2022-11-15T17:23:09;12.40;99.90
43607;DHT22;29197;44.788;10.366;2022-11-15T17:26:01;12.40;99.90
43607;DHT22;29197;44.788;10.366;2022-11-15T17:29:12;12.40;99.90
43607;DHT22;29197;44.788;10.366;2022-11-15T17:32:01;12.30;99.90
43607;DHT22;29197;44.788;10.366;2022-11-15T17:34:52;12.30;99.90
43607;DHT22;29197;44.788;10.366;2022-11-15T17:37:41;12.30;99.90
43607;DHT22;29197;44.788;10.366;2022-11-15T17:40:31;12.30;99.90
43607;DHT22;29197;44.788;10.366;2022-11-15T17:43:20;12.20;99.90
43607;DHT22;29197;44.788;10.366;2022-11-15T17:46:11;12.30;99.90
43607;DHT22;29197;44.788;10.366;2022-11-15T17:49:01;12.30;99.90
43607;DHT22;29197;44.788;10.366;2022-11-15T17:51:52;12.20;99.90
43607;DHT22;29197;44.788;10.366;2022-11-15T17:54:42;12.40;99.90
43607;DHT22;29197;44.788;10.366;2022-11-15T17:57:31;12.30;99.90
43607;DHT22;29197;44.788;10.366;2022-11-15T18:00:20;12.30;99.90
43607;DHT22;29197;44.788;10.366;2022-11-15T18:03:09;12.30;99.90
43607;DHT22;29197;44.788;10.366;2022-11-15T18:05:59;12.30;99.90
43607;DHT22;29197;44.788;10.366;2022-11-15T18:08:51;12.30;99.90
43607;DHT22;29197;44.788;10.366;2022-11-15T18:11:41;13.10;99.90
43607;DHT22;29197;44.788;10.366;2022-11-15T18:14:32;12.30;99.90
43607;DHT22;29197;44.788;10.366;2022-11-15T18:17:23;12.30;99.90
43607;DHT22;29197;44.788;10.366;2022-11-15T18:20:12;12.30;99.90
43607;DHT22;29197;44.788;10.366;2022-11-15T18:23:01;12.30;99.90
43607;DHT22;29197;44.788;10.366;2022-11-15T18:25:52;12.50;99.90
43607;DHT22;29197;44.788;10.366;2022-11-15T18:28:43;12.30;99.90
43607;DHT22;29197;44.788;10.366;2022-11-15T18:31:32;12.30;99.90
43607;DHT22;29197;44.788;10.366;2022-11-15T18:34:22;12.30;99.90
43607;DHT22;29197;44.788;10.366;2022-11-15T18:37:11;12.30;99.90
43607;DHT22;29197;44.788;10.366;2022-11-15T18:40:01;12.30;99.90
43607;DHT22;29197;44.788;10.366;2022-11-15T18:42:53;12.30;99.90
43607;DHT22;29197;44.788;10.366;2022-11-15T18:45:42;12.30;99.90
43607;DHT22;29197;44.788;10.366;2022-11-15T18:48:32;12.30;99.90
43607;DHT22;29197;44.788;10.366;2022-11-15T18:51:25;12.30;99.90
43607;DHT22;29197;44.788;10.366;2022-11-15T18:54:15;12.40;99.90
43607;DHT22;29197;44.788;10.366;2022-11-15T18:57:05;12.40;99.90
43607;DHT22;29197;44.788;10.366;2022-11-15T18:59:56;12.30;99.90
43607;DHT22;29197;44.788;10.366;2022-11-15T19:02:45;12.40;99.90
43607;DHT22;29197;44.788;10.366;2022-11-15T19:05:34;12.30;99.90
43607;DHT22;29197;44.788;10.366;2022-11-15T19:08:23;12.30;99.90
43607;DHT22;29197;44.788;10.366;2022-11-15T19:11:13;12.30;99.90
43607;DHT22;29197;44.788;10.366;2022-11-15T19:14:04;12.20;99.90
43607;DHT22;29197;44.788;10.366;2022-11-15T19:16:55;12.20;99.90
43607;DHT22;29197;44.788;10.366;2022-11-15T19:19:45;12.20;99.90
43607;DHT22;29197;44.788;10.366;2022-11-15T19:22:33;12.30;99.90
43607;DHT22;29197;44.788;10.366;2022-11-15T19:25:22;12.30;99.90
43607;DHT22;29197;44.788;10.366;2022-11-15T19:28:15;12.30;99.90
43607;DHT22;29197;44.788;10.366;2022-11-15T19:31:05;12.30;99.90
43607;DHT22;29197;44.788;10.366;2022-11-15T19:33:58;12.30;99.90
43607;DHT22;29197;44.788;10.366;2022-11-15T19:36:47;12.30;99.90
43607;DHT22;29197;44.788;10.366;2022-11-15T19:39:37;12.30;99.90
43607;DHT22;29197;44.788;10.366;2022-11-15T19:42:27;12.30;99.90
43607;DHT22;29197;44.788;10.366;2022-11-15T19:45:17;12.30;99.90
43607;DHT22;29197;44.788;10.366;2022-11-15T19:48:06;12.30;99.90
43607;DHT22;29197;44.788;10.366;2022-11-15T19:50:59;12.30;99.90
43607;DHT22;29197;44.788;10.366;2022-11-15T19:53:48;12.30;99.90
43607;DHT22;29197;44.788;10.366;2022-11-15T19:56:39;12.30;99.90
43607;DHT22;29197;44.788;10.366;2022-11-15T19:59:29;12.30;99.90
43607;DHT22;29197;44.788;10.366;2022-11-15T20:02:17;12.30;99.90
43607;DHT22;29197;44.788;10.366;2022-11-15T20:05:07;12.30;99.90
43607;DHT22;29197;44.788;10.366;2022-11-15T20:08:06;12.30;99.90
43607;DHT22;29197;44.788;10.366;2022-11-15T20:10:56;12.30;99.90
43607;DHT22;29197;44.788;10.366;2022-11-15T20:13:46;12.30;99.90
43607;DHT22;29197;44.788;10.366;2022-11-15T20:16:35;12.30;99.90
43607;DHT22;29197;44.788;10.366;2022-11-15T20:19:25;12.30;99.90
43607;DHT22;29197;44.788;10.366;2022-11-15T20:22:14;12.30;99.90
43607;DHT22;29197;44.788;10.366;2022-11-15T20:25:06;12.30;99.90
43607;DHT22;29197;44.788;10.366;2022-11-15T20:27:56;12.40;99.90
43607;DHT22;29197;44.788;10.366;2022-11-15T20:30:46;12.30;99.90
43607;DHT22;29197;44.788;10.366;2022-11-15T20:33:35;12.40;99.90
43607;DHT22;29197;44.788;10.366;2022-11-15T20:36:24;12.30;99.90
43607;DHT22;29197;44.788;10.366;2022-11-15T20:39:14;12.30;99.90
43607;DHT22;29197;44.788;10.366;2022-11-15T20:42:05;12.30;99.90
43607;DHT22;29197;44.788;10.366;2022-11-15T20:44:55;12.40;99.90
43607;DHT22;29197;44.788;10.366;2022-11-15T20:47:44;12.40;99.90
43607;DHT22;29197;44.788;10.366;2022-11-15T20:50:34;12.40;99.90
43607;DHT22;29197;44.788;10.366;2022-11-15T20:53:29;12.40;99.90
43607;DHT22;29197;44.788;10.366;2022-11-15T20:56:20;12.40;99.90
43607;DHT22;29197;44.788;10.366;2022-11-15T20:59:10;12.40;99.90
43607;DHT22;29197;44.788;10.366;2022-11-15T21:02:00;12.40;99.90
43607;DHT22;29197;44.788;10.366;2022-11-15T21:04:50;12.40;99.90
43607;DHT22;29197;44.788;10.366;2022-11-15T21:07:39;12.40;99.90
43607;DHT22;29197;44.788;10.366;2022-11-15T21:10:28;12.40;99.90
43607;DHT22;29197;44.788;10.366;2022-11-15T21:13:34;12.40;99.90
43607;DHT22;29197;44.788;10.366;2022-11-15T21:16:26;12.40;99.90
43607;DHT22;29197;44.788;10.366;2022-11-15T21:19:15;12.40;99.90
43607;DHT22;29197;44.788;10.366;2022-11-15T21:22:12;12.40;99.90
43607;DHT22;29197;44.788;10.366;2022-11-15T21:25:02;12.40;99.90
43607;DHT22;29197;44.788;10.366;2022-11-15T21:27:51;12.40;99.90
43607;DHT22;29197;44.788;10.366;2022-11-15T21:30:40;12.40;99.90
43607;DHT22;29197;44.788;10.366;2022-11-15T21:33:33;12.40;99.90
43607;DHT22;29197;44.788;10.366;2022-11-15T21:36:22;12.40;99.90
43607;DHT22;29197;44.788;10.366;2022-11-15T21:39:12;12.40;99.90
43607;DHT22;29197;44.788;10.366;2022-11-15T21:42:01;12.40;99.90
43607;DHT22;29197;44.788;10.366;2022-11-15T21:44:51;12.40;99.90
43607;DHT22;29197;44.788;10.366;2022-11-15T21:47:40;12.40;99.90
43607;DHT22;29197;44.788;10.366;2022-11-15T21:50:34;12.40;99.90
43607;DHT22;29197;44.788;10.366;2022-11-15T21:53:23;12.40;99.90
43607;DHT22;29197;44.788;10.366;2022-11-15T21:56:13;12.40;99.90
43607;DHT22;29197;44.788;10.366;2022-11-15T21:59:02;12.40;99.90
43607;DHT22;29197;44.788;10.366;2022-11-15T22:01:51;12.40;99.90
43607;DHT22;29197;44.788;10.366;2022-11-15T22:04:58;12.40;99.90
43607;DHT22;29197;44.788;10.366;2022-11-15T22:07:48;12.40;99.90
43607;DHT22;29197;44.788;10.366;2022-11-15T22:10:38;12.40;99.90
43607;DHT22;29197;44.788;10.366;2022-11-15T22:13:28;12.30;99.90
43607;DHT22;29197;44.788;10.366;2022-11-15T22:16:17;12.30;99.90
43607;DHT22;29197;44.788;10.366;2022-11-15T22:19:06;12.30;99.90
43607;DHT22;29197;44.788;10.366;2022-11-15T22:21:56;12.30;99.90
43607;DHT22;29197;44.788;10.366;2022-11-15T22:24:48;12.30;99.90
43607;DHT22;29197;44.788;10.366;2022-11-15T22:27:37;12.30;99.90
43607;DHT22;29197;44.788;10.366;2022-11-15T22:30:26;12.40;99.90
43607;DHT22;29197;44.788;10.366;2022-11-15T22:33:17;12.40;99.90
43607;DHT22;29197;44.788;10.366;2022-11-15T22:36:07;12.40;99.90
43607;DHT22;29197;44.788;10.366;2022-11-15T22:38:56;12.40;99.90
43607;DHT22;29197;44.788;10.366;2022-11-15T22:41:47;12.40;99.90
43607;DHT22;29197;44.788;10.366;2022-11-15T22:44:36;12.40;99.90
43607;DHT22;29197;44.788;10.366;2022-11-15T22:47:26;12.40;99.90
43607;DHT22;29197;44.788;10.366;2022-11-15T22:50:17;12.40;99.90
43607;DHT22;29197;44.788;10.366;2022-11-15T22:53:07;12.40;99.90
43607;DHT22;29197;44.788;10.366;2022-11-15T22:55:58;12.40;99.90
43607;DHT22;29197;44.788;10.366;2022-11-15T22:58:49;12.40;99.90
43607;DHT22;29197;44.788;10.366;2022-11-15T23:01:38;12.40;99.90
43607;DHT22;29197;44.788;10.366;2022-11-15T23:04:27;12.30;99.90
43607;DHT22;29197;44.788;10.366;2022-11-15T23:07:17;12.30;99.90
43607;DHT22;29197;44.788;10.366;2022-11-15T23:10:08;12.30;99.90
43607;DHT22;29197;44.788;10.366;2022-11-15T23:13:15;12.40;99.90
43607;DHT22;29197;44.788;10.366;2022-11-15T23:16:07;12.40;99.90
43607;DHT22;29197;44.788;10.366;2022-11-15T23:19:19;12.30;99.90
43607;DHT22;29197;44.788;10.366;2022-11-15T23:22:08;12.30;99.90
43607;DHT22;29197;44.788;10.366;2022-11-15T23:25:15;12.30;99.90
43607;DHT22;29197;44.788;10.366;2022-11-15T23:28:04;12.30;99.90
43607;DHT22;29197;44.788;10.366;2022-11-15T23:30:53;12.30;99.90
43607;DHT22;29197;44.788;10.366;2022-11-15T23:34:08;12.30;99.90
43607;DHT22;29197;44.788;10.366;2022-11-15T23:36:57;12.30;99.90
43607;DHT22;29197;44.788;10.366;2022-11-15T23:39:46;12.30;99.90
43607;DHT22;29197;44.788;10.366;2022-11-15T23:42:36;12.30;99.90
43607;DHT22;29197;44.788;10.366;2022-11-15T23:45:25;12.30;99.90
43607;DHT22;29197;44.788;10.366;2022-11-15T23:48:14;12.30;99.90
43607;DHT22;29197;44.788;10.366;2022-11-15T23:51:05;12.30;99.90
43607;DHT22;29197;44.788;10.366;2022-11-15T23:53:55;12.30;99.90
43607;DHT22;29197;44.788;10.366;2022-11-15T23:56:44;12.30;99.90
